Time;durP1;ratioP1;P1;durP2;ratioP2;P2;SDS_P1;SDS_P2;PMS_P1;PMS_P2;Temp;Humidity;BMP_temperature;BMP_pressure;BME280_temperature;BME280_humidity;BME280_pressure;Samples;Min_cycle;Max_cycle;Signal;HPM_P1;HPM_P2
2024/01/01 00:00:43;;;;;;;68.50;38.05;;;;;;;6.94;100.00;99625.03;6087223;19;20006;-74
2024/01/01 00:02:50;;;;;;;52.30;28.65;;;;;;;6.90;100.00;99620.84;6087163;19;20031;-69
2024/01/01 00:04:56;;;;;;;52.85;29.70;;;;;;;6.90;100.00;99607.78;6084932;19;20011;-74
2024/01/01 00:07:01;;;;;;;58.78;30.17;;;;;;;6.88;100.00;99615.72;6088063;19;20019;-72
2024/01/01 00:09:06;;;;;;;43.22;25.10;;;;;;;6.86;100.00;99627.97;6087463;19;20006;-73
2024/01/01 00:11:11;;;;;;;33.17;18.92;;;;;;;6.87;100.00;99615.75;6089241;19;20023;-74
2024/01/01 00:13:19;;;;;;;24.70;15.35;;;;;;;6.85;100.00;99610.63;6088067;19;20454;-74
2024/01/01 00:15:25;;;;;;;36.30;19.88;;;;;;;6.79;100.00;99616.97;6084180;19;20022;-72
2024/01/01 00:17:30;;;;;;;40.15;20.05;;;;;;;6.77;100.00;99607.50;6084671;19;20010;-71
2024/01/01 00:19:34;;;;;;;48.85;25.38;;;;;;;6.73;100.00;99629.44;6087648;19;20025;-70
2024/01/01 00:21:38;;;;;;;44.13;22.65;;;;;;;6.68;100.00;99613.13;6083413;19;20023;-69
2024/01/01 00:23:41;;;;;;;41.03;20.70;;;;;;;6.70;100.00;99621.75;6085580;19;20581;-69
2024/01/01 00:25:46;;;;;;;52.28;28.75;;;;;;;6.72;100.00;99626.00;6081578;19;20006;-72
2024/01/01 00:27:51;;;;;;;35.47;18.60;;;;;;;6.75;100.00;99614.56;6080335;19;20297;-72
2024/01/01 00:29:58;;;;;;;24.23;15.15;;;;;;;6.76;100.00;99611.88;6079396;19;20011;-72
2024/01/01 00:32:05;;;;;;;70.03;38.47;;;;;;;6.77;100.00;99608.34;6079705;19;20038;-73
2024/01/01 00:34:10;;;;;;;72.72;37.70;;;;;;;6.68;100.00;99628.78;6084727;19;20585;-71
2024/01/01 00:36:15;;;;;;;31.15;16.75;;;;;;;6.67;100.00;99624.50;6082552;19;20025;-72
2024/01/01 00:38:20;;;;;;;33.58;17.10;;;;;;;6.61;100.00;99620.41;6087975;19;20091;-72
2024/01/01 00:40:26;;;;;;;26.25;14.48;;;;;;;6.59;100.00;99628.28;6083454;19;20039;-74
2024/01/01 00:42:30;;;;;;;26.75;14.40;;;;;;;6.59;100.00;99620.44;6082757;19;20007;-72
2024/01/01 00:44:35;;;;;;;23.38;10.68;;;;;;;6.59;100.00;99617.84;6081267;19;20548;-72
2024/01/01 00:46:40;;;;;;;25.45;12.68;;;;;;;6.57;100.00;99624.88;6086138;19;20501;-73
2024/01/01 00:48:45;;;;;;;37.85;18.52;;;;;;;6.54;100.00;99613.75;6088076;19;20029;-72
2024/01/01 00:50:50;;;;;;;25.95;12.55;;;;;;;6.54;100.00;99629.41;6083805;19;20032;-70
2024/01/01 00:52:56;;;;;;;24.90;13.00;;;;;;;6.53;100.00;99620.72;6081042;19;20010;-70
2024/01/01 00:55:01;;;;;;;18.95;9.15;;;;;;;6.55;100.00;99615.44;6086081;19;20041;-72
2024/01/01 00:57:06;;;;;;;24.15;13.65;;;;;;;6.53;100.00;99607.69;6084598;19;20118;-73
2024/01/01 00:59:11;;;;;;;27.95;10.93;;;;;;;6.62;100.00;99610.81;6086277;19;20074;-73
2024/01/01 01:01:16;;;;;;;19.23;10.98;;;;;;;6.65;100.00;99626.31;6086401;19;20014;-69
2024/01/01 01:03:22;;;;;;;21.65;10.65;;;;;;;6.70;100.00;99629.56;6088310;19;20011;-73
2024/01/01 01:05:27;;;;;;;24.25;13.30;;;;;;;6.68;100.00;99620.97;6087711;19;20003;-73
2024/01/01 01:07:33;;;;;;;23.98;11.73;;;;;;;6.71;100.00;99626.03;6087830;19;20014;-72
2024/01/01 01:09:38;;;;;;;17.25;9.68;;;;;;;6.65;100.00;99616.72;6087408;19;20344;-69
2024/01/01 01:11:43;;;;;;;29.58;12.82;;;;;;;6.66;100.00;99622.78;6086330;19;20019;-69
2024/01/01 01:13:48;;;;;;;26.73;11.93;;;;;;;6.67;100.00;99625.34;6087437;19;20010;-69
2024/01/01 01:15:55;;;;;;;30.67;12.93;;;;;;;6.69;100.00;99648.75;6084147;19;20133;-74
2024/01/01 01:18:00;;;;;;;31.98;14.07;;;;;;;6.74;100.00;99620.69;6084076;19;20009;-74
2024/01/01 01:20:09;;;;;;;29.38;13.05;;;;;;;6.74;100.00;99637.22;6087167;19;20459;-69
2024/01/01 01:22:11;;;;;;;27.88;12.57;;;;;;;6.75;100.00;99648.50;6084954;19;20113;-70
2024/01/01 01:24:18;;;;;;;22.20;11.23;;;;;;;6.77;100.00;99646.69;6082432;19;20014;-72
2024/01/01 01:26:23;;;;;;;22.08;10.13;;;;;;;6.75;100.00;99651.94;6081480;19;20438;-69
2024/01/01 01:28:25;;;;;;;18.73;7.90;;;;;;;6.76;100.00;99658.84;6081874;19;20542;-73
2024/01/01 01:30:30;;;;;;;16.27;7.97;;;;;;;6.72;100.00;99656.47;6081982;19;20481;-71
2024/01/01 01:32:33;;;;;;;16.23;8.63;;;;;;;6.65;100.00;99668.09;6083516;19;20510;-73
2024/01/01 01:34:38;;;;;;;23.75;9.18;;;;;;;6.65;100.00;99676.75;6085916;19;20471;-75
2024/01/01 01:36:45;;;;;;;18.00;7.80;;;;;;;6.63;100.00;99696.00;6082674;19;20011;-71
2024/01/01 01:38:50;;;;;;;22.00;8.18;;;;;;;6.57;100.00;99686.69;6083673;19;20011;-71
2024/01/01 01:40:55;;;;;;;17.13;7.63;;;;;;;6.52;100.00;99694.69;6081329;19;20010;-73
2024/01/01 01:43:00;;;;;;;15.10;7.70;;;;;;;6.45;100.00;99693.28;6082258;19;20375;-72
2024/01/01 01:45:03;;;;;;;23.88;8.23;;;;;;;6.46;100.00;99683.69;6083694;19;20095;-72
2024/01/01 01:47:09;;;;;;;23.92;8.90;;;;;;;6.48;100.00;99693.16;6080463;19;20343;-73
2024/01/01 01:49:16;;;;;;;20.30;8.77;;;;;;;6.45;100.00;99684.59;6081695;19;20009;-73
2024/01/01 01:51:21;;;;;;;21.90;8.18;;;;;;;6.44;100.00;99683.75;6084267;19;20010;-73
2024/01/01 01:53:30;;;;;;;12.40;5.32;;;;;;;6.48;100.00;99690.53;6081615;19;20002;-70
2024/01/01 01:55:35;;;;;;;15.35;6.72;;;;;;;6.44;100.00;99690.72;6086452;19;20509;-73
2024/01/01 01:57:40;;;;;;;19.35;6.65;;;;;;;6.47;100.00;99691.44;6083967;19;20695;-75
2024/01/01 01:59:43;;;;;;;19.20;7.78;;;;;;;6.47;100.00;99690.59;6082395;19;20014;-72
2024/01/01 02:01:48;;;;;;;;;;;;;;;6.45;100.00;99681.97;6084299;19;20038;-70
2024/01/01 02:03:53;;;;;;;20.80;7.28;;;;;;;6.47;100.00;99686.22;6082288;19;19943;-74
2024/01/01 02:05:58;;;;;;;12.10;6.05;;;;;;;6.50;100.00;99690.47;6084058;19;20038;-74
2024/01/01 02:08:04;;;;;;;13.63;6.13;;;;;;;6.50;100.00;99693.94;6084297;19;20327;-70
2024/01/01 02:10:12;;;;;;;16.33;6.10;;;;;;;6.51;100.00;99686.97;6086284;19;20503;-70
2024/01/01 02:12:17;;;;;;;16.00;6.20;;;;;;;6.51;100.00;99692.19;6078960;19;20037;-72
2024/01/01 02:14:23;;;;;;;15.88;5.93;;;;;;;6.53;100.00;99690.31;6083518;19;20584;-72
2024/01/01 02:16:28;;;;;;;24.67;7.20;;;;;;;6.52;100.00;99686.03;6084240;19;20007;-70
2024/01/01 02:18:36;;;;;;;11.82;5.75;;;;;;;6.56;100.00;99700.66;6082963;19;20014;-72
2024/01/01 02:20:41;;;;;;;16.38;5.93;;;;;;;6.57;100.00;99691.91;6084791;19;20010;-69
2024/01/01 02:22:49;;;;;;;16.52;5.60;;;;;;;6.56;100.00;99700.66;6082223;19;20012;-71
2024/01/01 02:24:56;;;;;;;16.13;5.70;;;;;;;6.55;100.00;99707.63;6081727;19;20002;-70
2024/01/01 02:27:04;;;;;;;11.18;4.78;;;;;;;6.56;100.00;99691.06;6083627;19;20654;-70
2024/01/01 02:29:08;;;;;;;10.02;4.55;;;;;;;6.54;100.00;99694.66;6082628;19;20031;-73
2024/01/01 02:31:11;;;;;;;18.35;5.30;;;;;;;6.51;100.00;99687.81;6082445;19;20007;-73
2024/01/01 02:33:16;;;;;;;19.42;5.40;;;;;;;6.56;100.00;99685.84;6080819;19;20038;-73
2024/01/01 02:35:19;;;;;;;10.32;4.32;;;;;;;6.60;100.00;99694.38;6082818;19;20125;-72
2024/01/01 02:37:24;;;;;;;15.48;4.03;;;;;;;6.63;100.00;99696.00;6083056;19;20023;-71
2024/01/01 02:39:29;;;;;;;10.90;5.75;;;;;;;6.62;100.00;99692.56;6081199;19;20018;-72
2024/01/01 02:41:35;;;;;;;11.25;5.30;;;;;;;6.64;100.00;99689.91;6083009;19;20021;-70
2024/01/01 02:43:40;;;;;;;13.82;3.92;;;;;;;6.64;100.00;99692.50;6082024;19;20002;-71
2024/01/01 02:45:45;;;;;;;15.75;4.00;;;;;;;6.65;100.00;99691.59;6081622;19;20018;-71
2024/01/01 02:47:50;;;;;;;15.15;4.38;;;;;;;6.67;100.00;99708.88;6080482;19;20589;-72
2024/01/01 02:49:55;;;;;;;13.63;4.45;;;;;;;6.72;100.00;99698.25;6079119;19;20011;-73
2024/01/01 02:52:00;;;;;;;12.25;4.47;;;;;;;6.66;100.00;99704.59;6078333;19;20014;-72
2024/01/01 02:54:03;;;;;;;9.80;4.10;;;;;;;6.70;100.00;99694.84;6079186;19;20008;-71
2024/01/01 02:56:08;;;;;;;10.70;3.65;;;;;;;6.70;100.00;99698.28;6081221;19;20483;-71
2024/01/01 02:58:15;;;;;;;8.13;3.47;;;;;;;6.72;100.00;99706.06;6082224;19;20015;-71
2024/01/01 03:00:21;;;;;;;15.15;3.33;;;;;;;6.66;100.00;99696.75;6077905;19;20006;-73
2024/01/01 03:02:23;;;;;;;18.80;5.03;;;;;;;6.69;100.00;99699.22;6079265;19;20042;-69
2024/01/01 03:04:31;;;;;;;19.83;4.00;;;;;;;6.70;100.00;99694.84;6078031;19;20087;-69
2024/01/01 03:06:36;;;;;;;11.48;3.28;;;;;;;6.70;100.00;99708.75;6078614;19;20007;-72
2024/01/01 03:08:41;;;;;;;11.82;4.05;;;;;;;6.72;100.00;99706.91;6080285;19;20115;-72
2024/01/01 03:10:46;;;;;;;20.58;3.92;;;;;;;6.71;100.00;99714.81;6078952;19;20006;-71
2024/01/01 03:12:51;;;;;;;15.75;4.68;;;;;;;6.70;100.00;99715.72;6078637;19;20017;-73
2024/01/01 03:14:59;;;;;;;13.93;5.03;;;;;;;6.71;100.00;99715.66;6078030;19;20010;-72
2024/01/01 03:17:04;;;;;;;12.93;4.13;;;;;;;6.71;100.00;99718.25;6080981;19;20010;-74
2024/01/01 03:19:09;;;;;;;16.75;3.75;;;;;;;6.75;100.00;99716.38;6081414;19;20021;-71
2024/01/01 03:21:18;;;;;;;16.67;5.13;;;;;;;6.72;100.00;99716.53;6079562;19;20475;-73
2024/01/01 03:23:20;;;;;;;12.05;4.13;;;;;;;6.70;100.00;99719.19;6078040;19;20009;-73
2024/01/01 03:25:26;;;;;;;11.30;4.55;;;;;;;6.71;100.00;99722.63;6082272;19;20093;-73
2024/01/01 03:27:31;;;;;;;13.90;3.40;;;;;;;6.73;100.00;99737.31;6079520;19;20077;-72
2024/01/01 03:29:33;;;;;;;11.82;4.45;;;;;;;6.70;100.00;99731.41;6079811;19;20011;-74
2024/01/01 03:31:45;;;;;;;18.15;4.55;;;;;;;6.71;100.00;99733.06;6082010;19;20009;-74
2024/01/01 03:33:50;;;;;;;10.60;4.05;;;;;;;6.72;100.00;99742.63;6081953;19;20738;-75
2024/01/01 03:35:55;;;;;;;18.92;4.07;;;;;;;6.73;100.00;99729.50;6080957;19;20455;-73
2024/01/01 03:37:57;;;;;;;15.20;4.07;;;;;;;6.72;100.00;99726.97;6078366;19;20014;-73
2024/01/01 03:40:03;;;;;;;11.00;4.28;;;;;;;6.76;100.00;99731.97;6081260;19;20550;-73
2024/01/01 03:42:08;;;;;;;20.90;4.57;;;;;;;6.78;100.00;99726.69;6077988;19;20028;-74
2024/01/01 03:44:13;;;;;;;12.13;4.13;;;;;;;6.77;100.00;99735.44;6076413;19;20262;-73
2024/01/01 03:46:16;;;;;;;17.35;4.82;;;;;;;6.81;100.00;99737.00;6080413;19;20015;-71
2024/01/01 03:48:23;;;;;;;19.55;4.05;;;;;;;6.81;100.00;99750.06;6079985;19;20014;-72
2024/01/01 03:50:28;;;;;;;11.00;3.38;;;;;;;6.87;100.00;99749.78;6075500;19;20017;-71
2024/01/01 03:52:31;;;;;;;12.38;3.28;;;;;;;6.91;100.00;99753.97;6079043;19;20074;-70
2024/01/01 03:54:36;;;;;;;10.25;4.60;;;;;;;6.93;100.00;99760.00;6080938;19;20025;-70
2024/01/01 03:56:38;;;;;;;12.73;4.45;;;;;;;6.95;100.00;99755.56;6078151;19;20013;-72
2024/01/01 03:58:43;;;;;;;15.90;3.03;;;;;;;6.96;100.00;99753.78;6079081;19;20032;-70
2024/01/01 04:00:48;;;;;;;11.70;4.78;;;;;;;6.95;100.00;99752.94;6079124;19;20003;-70
2024/01/01 04:02:53;;;;;;;13.55;3.30;;;;;;;6.97;100.00;99758.09;6077859;19;20433;-72
2024/01/01 04:05:00;;;;;;;5.85;3.03;;;;;;;6.96;100.00;99759.84;6080257;19;20010;-73
2024/01/01 04:07:06;;;;;;;11.75;4.20;;;;;;;6.99;100.00;99746.66;6080227;19;20017;-72
2024/01/01 04:09:11;;;;;;;16.27;4.03;;;;;;;6.99;100.00;99751.03;6080708;19;20002;-73
2024/01/01 04:11:16;;;;;;;20.85;4.43;;;;;;;6.94;100.00;99763.44;6079579;19;20018;-71
2024/01/01 04:13:21;;;;;;;10.48;2.85;;;;;;;6.97;100.00;99765.91;6081376;19;20337;-71
2024/01/01 04:15:26;;;;;;;13.93;3.08;;;;;;;6.98;100.00;99767.63;6081350;19;20471;-72
2024/01/01 04:17:31;;;;;;;17.45;3.10;;;;;;;6.96;100.00;99765.06;6080115;19;20077;-73
2024/01/01 04:19:36;;;;;;;12.05;3.53;;;;;;;6.92;100.00;99766.09;6079902;19;20015;-70
2024/01/01 04:21:44;;;;;;;6.60;2.53;;;;;;;6.95;100.00;99778.19;6080733;19;20011;-73
2024/01/01 04:23:50;;;;;;;13.88;3.65;;;;;;;6.95;100.00;99780.81;6077814;19;20010;-74
2024/01/01 04:25:55;;;;;;;19.00;3.10;;;;;;;6.94;100.00;99782.56;6080081;19;20015;-70
2024/01/01 04:28:00;;;;;;;11.35;3.30;;;;;;;6.94;100.00;99782.56;6084024;19;20021;-70
2024/01/01 04:30:06;;;;;;;15.70;4.47;;;;;;;6.93;100.00;99778.28;6083770;19;20006;-70
2024/01/01 04:32:11;;;;;;;16.48;3.55;;;;;;;6.94;100.00;99784.34;6086422;19;20086;-69
2024/01/01 04:34:13;;;;;;;12.52;3.17;;;;;;;6.94;100.00;99779.13;6086969;19;20033;-72
2024/01/01 04:36:19;;;;;;;18.98;3.88;;;;;;;6.94;100.00;99795.63;6085786;19;20474;-73
2024/01/01 04:38:27;;;;;;;16.02;3.13;;;;;;;6.95;100.00;99786.03;6084327;19;21159;-73
2024/01/01 04:40:32;;;;;;;15.55;3.55;;;;;;;6.93;100.00;99796.56;6086867;19;20490;-71
2024/01/01 04:42:38;;;;;;;17.05;4.00;;;;;;;6.97;100.00;99792.03;6086656;19;20078;-72
2024/01/01 04:44:40;;;;;;;15.30;3.03;;;;;;;6.99;100.00;99785.84;6085457;19;20010;-68
2024/01/01 04:46:45;;;;;;;14.80;3.28;;;;;;;7.00;100.00;99803.22;6086597;19;20017;-74
2024/01/01 04:48:48;;;;;;;20.30;3.63;;;;;;;7.02;100.00;99801.38;6088176;19;20014;-73
2024/01/01 04:50:53;;;;;;;16.63;3.53;;;;;;;7.03;100.00;99789.19;6086200;19;20004;-69
2024/01/01 04:52:58;;;;;;;15.95;3.05;;;;;;;7.07;100.00;99795.13;6084032;19;20395;-69
2024/01/01 04:55:06;;;;;;;12.25;2.83;;;;;;;7.06;100.00;99799.50;6083897;19;20029;-73
2024/01/01 04:57:11;;;;;;;12.65;3.45;;;;;;;7.08;100.00;99820.31;6088092;19;20017;-74
2024/01/01 04:59:16;;;;;;;14.52;3.58;;;;;;;7.00;100.00;99818.91;6086094;19;20010;-73
2024/01/01 05:01:21;;;;;;;14.23;3.20;;;;;;;6.98;100.00;99818.09;6085372;19;20326;-73
2024/01/01 05:03:26;;;;;;;19.17;3.63;;;;;;;6.99;100.00;99821.56;6083871;19;20046;-73
2024/01/01 05:05:32;;;;;;;15.65;3.15;;;;;;;6.98;100.00;99815.50;6084519;19;20055;-73
2024/01/01 05:07:37;;;;;;;13.10;3.35;;;;;;;6.98;100.00;99828.56;6087210;19;20005;-73
2024/01/01 05:09:47;;;;;;;13.43;3.15;;;;;;;6.98;100.00;99828.56;6086530;19;20007;-72
2024/01/01 05:11:55;;;;;;;12.95;2.85;;;;;;;6.95;100.00;99826.06;6086314;19;20006;-72
2024/01/01 05:13:57;;;;;;;9.60;2.70;;;;;;;6.96;100.00;99826.91;6084174;19;20090;-74
2024/01/01 05:16:02;;;;;;;15.15;4.18;;;;;;;6.98;100.00;99828.56;6083170;19;20015;-74
2024/01/01 05:18:08;;;;;;;8.05;2.35;;;;;;;6.99;100.00;99832.84;6085289;19;20014;-72
2024/01/01 05:20:14;;;;;;;18.58;4.43;;;;;;;6.99;100.00;99832.84;6084060;19;20021;-71
2024/01/01 05:22:19;;;;;;;19.38;3.10;;;;;;;7.01;100.00;99833.66;6083371;19;20011;-74
2024/01/01 05:24:24;;;;;;;8.90;3.30;;;;;;;6.97;100.00;99829.44;6082227;19;20013;-70
2024/01/01 05:26:29;;;;;;;12.85;2.95;;;;;;;6.95;100.00;99836.53;6083162;19;20106;-73
2024/01/01 05:28:37;;;;;;;10.77;3.17;;;;;;;7.01;100.00;99838.88;6080403;19;20010;-72
2024/01/01 05:30:42;;;;;;;16.27;2.40;;;;;;;6.99;100.00;99850.28;6084602;19;20471;-73
2024/01/01 05:32:44;;;;;;;10.93;2.65;;;;;;;7.00;100.00;99847.63;6083387;19;20056;-74
2024/01/01 05:34:49;;;;;;;10.27;2.40;;;;;;;7.01;100.00;99828.41;6083771;19;20308;-73
2024/01/01 05:36:54;;;;;;;10.80;2.80;;;;;;;7.03;100.00;99838.81;6080833;19;20646;-73
2024/01/01 05:38:59;;;;;;;16.35;3.85;;;;;;;7.03;100.00;99839.66;6082652;19;20117;-73
2024/01/01 05:41:04;;;;;;;11.50;2.80;;;;;;;7.06;100.00;99853.47;6083631;19;20042;-73
2024/01/01 05:43:09;;;;;;;17.38;3.88;;;;;;;7.09;100.00;99869.06;6081612;19;20011;-74
2024/01/01 05:45:17;;;;;;;10.75;2.22;;;;;;;7.03;100.00;99868.41;6082576;19;20388;-71
2024/01/01 05:47:23;;;;;;;14.73;3.10;;;;;;;6.98;100.00;99870.34;6081448;19;20050;-74
2024/01/01 05:49:28;;;;;;;7.20;2.97;;;;;;;6.96;100.00;99872.16;6082461;19;20422;-74
2024/01/01 05:51:33;;;;;;;10.35;3.00;;;;;;;6.95;100.00;99874.81;6081548;19;20046;-74
2024/01/01 05:53:38;;;;;;;11.57;2.13;;;;;;;6.96;100.00;99871.31;6079278;19;20246;-74
2024/01/01 05:55:40;;;;;;;12.32;2.90;;;;;;;6.91;100.00;99871.50;6081165;19;20042;-73
2024/01/01 05:57:45;;;;;;;15.60;3.60;;;;;;;6.88;100.00;99879.47;6080119;19;20017;-73
2024/01/01 05:59:50;;;;;;;11.18;2.55;;;;;;;6.91;100.00;99881.09;6082076;19;20013;-73
2024/01/01 06:01:58;;;;;;;10.23;3.20;;;;;;;6.91;100.00;99881.94;6083077;19;20042;-73
2024/01/01 06:04:02;;;;;;;11.63;3.28;;;;;;;6.91;100.00;99889.78;6080081;19;20014;-73
2024/01/01 06:06:11;;;;;;;11.82;2.20;;;;;;;6.92;100.00;99894.09;6080710;19;20041;-71
2024/01/01 06:08:16;;;;;;;14.82;2.75;;;;;;;6.93;100.00;99893.19;6083592;19;20006;-71
2024/01/01 06:10:23;;;;;;;7.18;2.25;;;;;;;6.94;100.00;99894.88;6079615;19;20003;-71
2024/01/01 06:12:28;;;;;;;14.43;3.25;;;;;;;6.94;100.00;99904.47;6083096;19;20006;-70
2024/01/01 06:14:33;;;;;;;10.50;2.58;;;;;;;6.98;100.00;99906.91;6082668;19;20010;-70
2024/01/01 06:16:38;;;;;;;17.70;3.75;;;;;;;6.97;100.00;99912.19;6085274;19;20644;-71
2024/01/01 06:18:46;;;;;;;13.13;2.60;;;;;;;6.99;100.00;99918.19;6083852;19;20006;-70
2024/01/01 06:20:49;;;;;;;6.20;3.05;;;;;;;6.94;100.00;99921.00;6079402;19;20103;-70
2024/01/01 06:22:54;;;;;;;9.10;2.50;;;;;;;6.93;100.00;99918.47;6083803;19;20014;-73
2024/01/01 06:24:59;;;;;;;13.48;2.92;;;;;;;6.94;100.00;99918.38;6085148;19;20495;-73
2024/01/01 06:27:01;;;;;;;8.82;2.78;;;;;;;6.92;100.00;99928.03;6085639;19;20010;-73
2024/01/01 06:29:06;;;;;;;11.23;3.50;;;;;;;6.93;100.00;99937.59;6081315;19;20499;-71
2024/01/01 06:31:12;;;;;;;7.40;2.38;;;;;;;6.92;100.00;99943.69;6083112;19;20002;-73
2024/01/01 06:33:14;;;;;;;9.32;2.65;;;;;;;6.92;100.00;99935.88;6084891;19;20037;-72
2024/01/01 06:35:28;;;;;;;21.42;3.35;;;;;;;6.95;100.00;99948.84;6083866;19;20014;-72
2024/01/01 06:37:33;;;;;;;5.75;2.55;;;;;;;6.94;100.00;99957.56;6082358;19;20568;-73
2024/01/01 06:39:38;;;;;;;10.30;2.85;;;;;;;6.93;100.00;99960.25;6082388;19;20010;-74
2024/01/01 06:41:43;;;;;;;16.02;3.10;;;;;;;6.88;100.00;99955.19;6085122;19;20006;-73
2024/01/01 06:43:48;;;;;;;10.55;2.20;;;;;;;6.90;100.00;99961.22;6083571;19;20424;-73
2024/01/01 06:45:53;;;;;;;6.53;2.08;;;;;;;6.89;100.00;99969.94;6082135;19;20007;-73
2024/01/01 06:47:55;;;;;;;9.35;2.40;;;;;;;6.87;100.00;99961.31;6083799;19;20006;-73
2024/01/01 06:50:00;;;;;;;6.80;2.10;;;;;;;6.83;100.00;99975.41;6079521;19;20011;-70
2024/01/01 06:52:09;;;;;;;8.25;2.30;;;;;;;6.84;100.00;99979.72;6082701;19;20050;-70
2024/01/01 06:54:14;;;;;;;12.32;3.35;;;;;;;6.81;100.00;99972.00;6083163;19;20002;-70
2024/01/01 06:56:19;;;;;;;9.88;2.03;;;;;;;6.91;100.00;99988.19;6081206;19;20094;-70
2024/01/01 06:58:21;;;;;;;15.20;3.58;;;;;;;6.91;100.00;99989.03;6083040;19;20017;-70
2024/01/01 07:00:26;;;;;;;6.53;2.55;;;;;;;6.93;100.00;99992.44;6082278;19;20010;-70
2024/01/01 07:02:35;;;;;;;12.90;3.88;;;;;;;6.93;100.00;99989.81;6080762;19;20014;-69
2024/01/01 07:04:40;;;;;;;18.55;5.35;;;;;;;7.00;100.00;99999.13;6081638;19;20010;-70
2024/01/01 07:06:45;;;;;;;21.67;4.30;;;;;;;7.02;100.00;100002.50;6081595;19;20006;-70
2024/01/01 07:08:53;;;;;;;10.68;2.75;;;;;;;7.06;100.00;100005.00;6082578;19;20011;-73
2024/01/01 07:10:57;;;;;;;13.90;2.55;;;;;;;7.10;100.00;100014.44;6081519;19;20014;-69
2024/01/01 07:13:03;;;;;;;15.10;2.92;;;;;;;7.11;100.00;100006.53;6083054;19;20015;-71
2024/01/01 07:15:06;;;;;;;5.03;2.00;;;;;;;7.14;100.00;100000.34;6082358;19;20011;-72
2024/01/01 07:17:13;;;;;;;8.05;2.03;;;;;;;7.13;100.00;100017.75;6083630;19;20011;-70
2024/01/01 07:19:19;;;;;;;5.13;1.67;;;;;;;7.12;100.00;100023.06;6082882;19;20283;-69
2024/01/01 07:21:24;;;;;;;6.40;2.17;;;;;;;7.08;100.00;100027.53;6082802;19;20007;-74
2024/01/01 07:23:30;;;;;;;11.27;2.33;;;;;;;7.01;100.00;100019.09;6081835;19;20007;-72
2024/01/01 07:25:38;;;;;;;25.63;3.28;;;;;;;6.98;100.00;100037.50;6081653;19;20391;-71
2024/01/01 07:27:43;;;;;;;8.75;2.33;;;;;;;7.01;100.00;100029.56;6082614;19;20018;-69
2024/01/01 07:29:46;;;;;;;3.88;2.53;;;;;;;7.00;100.00;100034.81;6081986;19;20466;-69
2024/01/01 07:31:52;;;;;;;3.30;1.90;;;;;;;7.03;100.00;100046.03;6080184;19;20114;-69
2024/01/01 07:33:56;;;;;;;3.63;1.70;;;;;;;7.06;100.00;100046.78;6078176;19;20019;-71
2024/01/01 07:35:59;;;;;;;16.08;2.72;;;;;;;7.00;100.00;100045.28;6081970;19;20731;-73
2024/01/01 07:38:04;;;;;;;7.72;1.88;;;;;;;7.00;100.00;100050.50;6083027;19;20344;-72
2024/01/01 07:40:10;;;;;;;13.38;3.00;;;;;;;6.96;100.00;100056.75;6081311;19;20475;-69
2024/01/01 07:42:19;;;;;;;4.72;2.28;;;;;;;6.94;100.00;100066.41;6080935;19;20601;-69
2024/01/01 07:44:25;;;;;;;7.20;2.00;;;;;;;6.94;100.00;100062.03;6082309;19;20015;-69
2024/01/01 07:46:34;;;;;;;6.70;2.08;;;;;;;6.92;100.00;100069.06;6080939;19;20168;-72
2024/01/01 07:48:40;;;;;;;7.32;3.00;;;;;;;6.97;100.00;100071.50;6083905;19;20011;-72
2024/01/01 07:50:43;;;;;;;7.32;2.35;;;;;;;6.94;100.00;100077.72;6085116;19;20010;-72
2024/01/01 07:52:48;;;;;;;12.75;2.47;;;;;;;7.04;100.00;100076.44;6079903;19;20015;-71
2024/01/01 07:54:57;;;;;;;9.82;2.55;;;;;;;7.07;100.00;100082.47;6080181;19;20014;-72
2024/01/01 07:57:04;;;;;;;8.90;2.47;;;;;;;7.12;100.00;100085.75;6082022;19;20007;-68
2024/01/01 07:59:11;;;;;;;8.48;2.65;;;;;;;7.16;100.00;100093.44;6081459;19;20019;-69
2024/01/01 08:01:18;;;;;;;9.25;2.40;;;;;;;7.20;100.00;100088.94;6081295;19;20006;-68
2024/01/01 08:03:25;;;;;;;9.30;3.00;;;;;;;7.17;100.00;100091.66;6085665;19;20002;-68
2024/01/01 08:05:30;;;;;;;2.42;1.60;;;;;;;7.18;100.00;100088.97;6082244;19;20020;-69
2024/01/01 08:07:35;;;;;;;8.55;1.92;;;;;;;7.14;100.00;100095.25;6087068;19;20126;-68
2024/01/01 08:09:41;;;;;;;7.35;2.65;;;;;;;7.13;100.00;100095.28;6086532;19;20014;-68
2024/01/01 08:11:46;;;;;;;6.85;3.00;;;;;;;7.16;100.00;100105.63;6083852;19;20074;-69
2024/01/01 08:13:51;;;;;;;9.40;2.88;;;;;;;7.21;100.00;100106.31;6083761;19;20006;-68
2024/01/01 08:15:59;;;;;;;4.22;1.50;;;;;;;7.15;100.00;100102.16;6085464;19;20530;-68
2024/01/01 08:18:04;;;;;;;3.75;1.65;;;;;;;7.09;100.00;100101.56;6086178;19;20120;-69
2024/01/01 08:20:14;;;;;;;8.07;2.38;;;;;;;7.06;100.00;100112.09;6085168;19;20129;-69
2024/01/01 08:22:20;;;;;;;4.95;1.85;;;;;;;7.14;100.00;100121.38;6083399;19;20038;-68
2024/01/01 08:24:27;;;;;;;5.60;1.80;;;;;;;7.15;100.00;100127.44;6084066;19;20015;-69
2024/01/01 08:26:32;;;;;;;9.50;2.53;;;;;;;7.13;100.00;100129.25;6084865;19;20471;-69
2024/01/01 08:28:35;;;;;;;4.03;1.98;;;;;;;7.09;100.00;100133.75;6086614;19;20146;-69
2024/01/01 08:30:43;;;;;;;4.82;1.88;;;;;;;7.11;100.00;100141.53;6085585;19;20021;-69
2024/01/01 08:32:51;;;;;;;9.85;2.58;;;;;;;7.17;100.00;100154.38;6085682;19;20018;-71
2024/01/01 08:34:56;;;;;;;10.52;2.45;;;;;;;7.11;100.00;100159.81;6086421;19;20017;-72
2024/01/01 08:37:01;;;;;;;5.13;1.60;;;;;;;7.00;100.00;100150.63;6083017;19;20002;-71
2024/01/01 08:39:09;;;;;;;7.55;1.48;;;;;;;6.90;100.00;100157.09;6085163;19;21091;-69
2024/01/01 08:41:17;;;;;;;3.05;1.77;;;;;;;6.84;100.00;100161.69;6085556;19;20034;-72
2024/01/01 08:43:23;;;;;;;2.85;2.17;;;;;;;6.77;100.00;100156.69;6085377;19;20038;-72
2024/01/01 08:45:28;;;;;;;1.73;1.20;;;;;;;6.78;100.00;100163.59;6082661;19;20384;-70
2024/01/01 08:47:33;;;;;;;5.20;2.00;;;;;;;6.80;100.00;100160.94;6081118;19;20011;-69
2024/01/01 08:49:43;;;;;;;5.93;1.40;;;;;;;6.78;100.00;100181.88;6085314;19;20077;-73
2024/01/01 08:51:49;;;;;;;6.07;1.80;;;;;;;6.87;100.00;100177.22;6084688;19;20007;-73
2024/01/01 08:53:51;;;;;;;5.80;1.70;;;;;;;6.83;100.00;100181.72;6083169;19;20150;-74
2024/01/01 08:55:56;;;;;;;7.00;1.70;;;;;;;6.83;100.00;100181.72;6082458;19;20010;-72
2024/01/01 08:58:01;;;;;;;6.20;1.80;;;;;;;6.80;100.00;100174.00;6084606;19;20007;-69
2024/01/01 09:00:04;;;;;;;9.70;1.73;;;;;;;6.91;100.00;100181.47;6086567;19;20076;-71
2024/01/01 09:02:10;;;;;;;1.85;1.48;;;;;;;6.97;100.00;100186.44;6084132;19;20010;-72
2024/01/01 09:04:17;;;;;;;4.15;1.63;;;;;;;7.03;100.00;100194.94;6086530;19;20010;-73
2024/01/01 09:06:26;;;;;;;14.18;1.88;;;;;;;7.04;100.00;100190.56;6087458;19;20024;-72
2024/01/01 09:08:31;;;;;;;4.80;1.63;;;;;;;7.01;100.00;100191.50;6084380;19;20038;-72
2024/01/01 09:10:36;;;;;;;3.15;1.83;;;;;;;7.12;100.00;100192.88;6083748;19;20414;-72
2024/01/01 09:12:41;;;;;;;7.85;1.58;;;;;;;7.17;100.00;100188.34;6083067;19;20694;-72
2024/01/01 09:14:46;;;;;;;8.27;1.80;;;;;;;7.22;100.00;100186.41;6085875;19;20453;-72
2024/01/01 09:16:53;;;;;;;8.05;2.53;;;;;;;7.29;100.00;100197.47;6087187;19;20057;-72
2024/01/01 09:19:02;;;;;;;5.90;1.73;;;;;;;7.33;100.00;100197.31;6083198;19;20011;-72
2024/01/01 09:21:08;;;;;;;7.60;2.17;;;;;;;7.35;100.00;100197.28;6085132;19;20041;-71
2024/01/01 09:23:15;;;;;;;5.90;2.40;;;;;;;7.37;100.00;100201.53;6084378;19;20447;-69
2024/01/01 09:25:19;;;;;;;4.28;1.63;;;;;;;7.38;100.00;100218.91;6087053;19;20083;-70
2024/01/01 09:27:24;;;;;;;7.53;2.10;;;;;;;7.39;100.00;100215.38;6087187;19;20403;-74
2024/01/01 09:29:30;;;;;;;8.60;2.83;;;;;;;7.36;100.00;100215.50;6083588;19;20521;-72
2024/01/01 09:31:35;;;;;;;4.88;2.28;;;;;;;7.34;100.00;100222.53;6086561;19;20038;-73
2024/01/01 09:33:40;;;;;;;2.97;1.92;;;;;;;7.40;100.00;100211.88;6086065;19;20085;-70
2024/01/01 09:35:46;;;;;;;8.52;1.92;;;;;;;7.42;100.00;100220.47;6082369;19;20036;-70
2024/01/01 09:37:53;;;;;;;3.45;1.52;;;;;;;7.45;100.00;100222.13;6084959;19;20015;-72
2024/01/01 09:40:01;;;;;;;6.68;2.13;;;;;;;7.48;100.00;100230.72;6085806;19;20293;-75
2024/01/01 09:42:07;;;;;;;4.75;1.45;;;;;;;7.42;100.00;100224.84;6084183;19;20024;-70